Anzahl Datensätze: 276
min. Temperatur: 7.8 °C
max. Temperatur: 14.0 °C
max. Windgeschwindigkeit: 3.6 km/h
Niederschlagsumme: 0.0 mm
| Datum |
Zeit |
Temp °C |
Feuchte % |
Taupunkt °C |
Luftdruck hPa |
Wind km/h |
Windrichtung |
Strahlung w/m² |
Niederschlag mm |
|---|---|---|---|---|---|---|---|---|---|
| 15.10.2025 | 00:01 | 10.7 | 87 | 8.6 | 1025.8 | 0.4 | NNO | 0 | 0.0 |
| 15.10.2025 | 00:06 | 10.7 | 87 | 8.6 | 1025.8 | 0.4 | NW | 0 | 0.0 |
| 15.10.2025 | 00:11 | 10.7 | 87 | 8.6 | 1025.8 | 0.0 | NNW | 0 | 0.0 |
| 15.10.2025 | 00:16 | 10.7 | 87 | 8.6 | 1025.8 | 0.9 | NNO | 0 | 0.0 |
| 15.10.2025 | 00:21 | 10.6 | 87 | 8.5 | 1025.8 | 0.4 | NNO | 0 | 0.0 |
| 15.10.2025 | 00:26 | 10.7 | 87 | 8.6 | 1025.8 | 0.4 | NNO | 0 | 0.0 |
| 15.10.2025 | 00:31 | 10.7 | 87 | 8.6 | 1025.8 | 0.9 | N | 0 | 0.0 |
| 15.10.2025 | 00:36 | 10.7 | 87 | 8.6 | 1025.8 | 0.4 | N | 0 | 0.0 |
| 15.10.2025 | 00:41 | 10.6 | 87 | 8.5 | 1025.8 | 0.0 | N | 0 | 0.0 |
| 15.10.2025 | 00:46 | 10.6 | 87 | 8.5 | 1025.8 | 0.4 | NO | 0 | 0.0 |
| 15.10.2025 | 00:51 | 10.6 | 87 | 8.5 | 1025.8 | 0.4 | NNO | 0 | 0.0 |
| 15.10.2025 | 00:56 | 10.6 | 87 | 8.5 | 1025.8 | 0.4 | NO | 0 | 0.0 |
| 15.10.2025 | 01:01 | 10.6 | 87 | 8.5 | 1025.8 | 0.4 | NNO | 0 | 0.0 |
| 15.10.2025 | 01:06 | 10.6 | 87 | 8.5 | 1025.8 | 0.0 | NNO | 0 | 0.0 |
| 15.10.2025 | 01:11 | 10.6 | 87 | 8.5 | 1025.8 | 0.0 | N | 0 | 0.0 |
| 15.10.2025 | 01:16 | 10.6 | 87 | 8.5 | 1025.8 | 0.0 | N | 0 | 0.0 |
| 15.10.2025 | 01:22 | 10.6 | 87 | 8.5 | 1025.7 | 0.0 | N | 0 | 0.0 |
| 15.10.2025 | 01:27 | 10.6 | 87 | 8.5 | 1025.8 | 0.4 | N | 0 | 0.0 |
| 15.10.2025 | 01:32 | 10.6 | 87 | 8.5 | 1025.8 | 0.4 | N | 0 | 0.0 |
| 15.10.2025 | 01:37 | 10.5 | 87 | 8.4 | 1025.7 | 0.0 | N | 0 | 0.0 |
| 15.10.2025 | 01:42 | 10.4 | 87 | 8.3 | 1025.8 | 0.0 | N | 0 | 0.0 |
| 15.10.2025 | 01:47 | 10.2 | 87 | 8.1 | 1025.7 | 0.0 | N | 0 | 0.0 |
| 15.10.2025 | 01:52 | 10.0 | 87 | 7.9 | 1025.7 | 0.0 | N | 0 | 0.0 |
| 15.10.2025 | 01:57 | 9.8 | 87 | 7.7 | 1025.7 | 0.0 | NNW | 0 | 0.0 |
| 15.10.2025 | 02:02 | 9.5 | 87 | 7.4 | 1025.7 | 0.4 | NNW | 0 | 0.0 |
| 15.10.2025 | 02:07 | 9.3 | 87 | 7.2 | 1025.8 | 0.0 | NNW | 0 | 0.0 |
| 15.10.2025 | 02:12 | 9.1 | 87 | 7.1 | 1025.8 | 0.0 | NNW | 0 | 0.0 |
| 15.10.2025 | 02:17 | 8.9 | 87 | 6.9 | 1025.8 | 0.0 | NNW | 0 | 0.0 |
| 15.10.2025 | 02:22 | 8.8 | 88 | 6.9 | 1025.7 | 0.0 | NNW | 0 | 0.0 |
| 15.10.2025 | 02:27 | 8.6 | 88 | 6.7 | 1025.8 | 0.0 | NNW | 0 | 0.0 |
| 15.10.2025 | 02:32 | 8.4 | 88 | 6.5 | 1025.8 | 0.0 | NNW | 0 | 0.0 |
| 15.10.2025 | 02:37 | 8.3 | 88 | 6.4 | 1025.8 | 0.0 | NNW | 0 | 0.0 |
| 15.10.2025 | 02:42 | 8.1 | 88 | 6.2 | 1025.7 | 0.0 | NNW | 0 | 0.0 |
| 15.10.2025 | 02:47 | 8.0 | 88 | 6.1 | 1025.8 | 0.0 | NNW | 0 | 0.0 |
| 15.10.2025 | 02:52 | 7.9 | 88 | 6.0 | 1025.7 | 0.0 | NNW | 0 | 0.0 |
| 15.10.2025 | 02:57 | 7.8 | 88 | 5.9 | 1025.7 | 0.0 | NNW | 0 | 0.0 |
| 15.10.2025 | 03:02 | 7.9 | 89 | 6.2 | 1025.8 | 0.0 | NNW | 0 | 0.0 |
| 15.10.2025 | 03:07 | 8.0 | 89 | 6.3 | 1025.8 | 0.9 | NNW | 0 | 0.0 |
| 15.10.2025 | 03:12 | 8.2 | 89 | 6.5 | 1025.7 | 0.4 | NNO | 0 | 0.0 |
| 15.10.2025 | 03:17 | 8.3 | 89 | 6.6 | 1025.7 | 0.0 | NNO | 0 | 0.0 |
| 15.10.2025 | 03:22 | 8.4 | 90 | 6.9 | 1025.6 | 0.4 | NNO | 0 | 0.0 |
| 15.10.2025 | 03:27 | 8.5 | 90 | 7.0 | 1025.6 | 0.4 | N | 0 | 0.0 |
| 15.10.2025 | 03:32 | 8.5 | 90 | 7.0 | 1025.6 | 0.4 | N | 0 | 0.0 |
| 15.10.2025 | 03:37 | 8.5 | 90 | 7.0 | 1025.6 | 0.4 | N | 0 | 0.0 |
| 15.10.2025 | 03:42 | 8.5 | 90 | 7.0 | 1025.5 | 0.9 | N | 0 | 0.0 |
| 15.10.2025 | 03:47 | 8.6 | 90 | 7.1 | 1025.6 | 0.4 | NNO | 0 | 0.0 |
| 15.10.2025 | 03:52 | 8.7 | 90 | 7.2 | 1025.5 | 0.9 | NNO | 0 | 0.0 |
| 15.10.2025 | 03:57 | 8.8 | 90 | 7.2 | 1025.4 | 0.4 | NNO | 0 | 0.0 |
| 15.10.2025 | 04:02 | 8.9 | 90 | 7.3 | 1025.5 | 0.4 | NNO | 0 | 0.0 |
| 15.10.2025 | 04:07 | 9.0 | 91 | 7.6 | 1025.4 | 0.0 | NO | 0 | 0.0 |
| 15.10.2025 | 04:13 | 9.0 | 90 | 7.4 | 1025.4 | 0.4 | NO | 0 | 0.0 |
| 15.10.2025 | 04:18 | 9.1 | 90 | 7.5 | 1025.4 | 0.0 | NO | 0 | 0.0 |
| 15.10.2025 | 04:23 | 9.1 | 91 | 7.7 | 1025.4 | 0.0 | NO | 0 | 0.0 |
| 15.10.2025 | 04:33 | 9.1 | 91 | 7.7 | 1025.5 | 0.9 | NO | 0 | 0.0 |
| 15.10.2025 | 04:38 | 9.2 | 91 | 7.8 | 1025.5 | 0.4 | NO | 0 | 0.0 |
| 15.10.2025 | 04:43 | 9.2 | 91 | 7.8 | 1025.4 | 0.0 | NO | 0 | 0.0 |
| 15.10.2025 | 04:53 | 9.3 | 91 | 7.9 | 1025.4 | 0.0 | NO | 0 | 0.0 |
| 15.10.2025 | 04:58 | 9.3 | 91 | 7.9 | 1025.4 | 0.0 | NO | 0 | 0.0 |
| 15.10.2025 | 05:03 | 9.3 | 91 | 7.9 | 1025.5 | 0.0 | NO | 0 | 0.0 |
| 15.10.2025 | 05:08 | 9.4 | 91 | 8.0 | 1025.5 | 0.0 | NO | 0 | 0.0 |
| 15.10.2025 | 05:13 | 9.4 | 91 | 8.0 | 1025.4 | 0.9 | NO | 0 | 0.0 |
| 15.10.2025 | 05:23 | 9.5 | 91 | 8.1 | 1025.4 | 0.4 | NO | 0 | 0.0 |
| 15.10.2025 | 05:28 | 9.5 | 91 | 8.1 | 1025.3 | 0.4 | NO | 0 | 0.0 |
| 15.10.2025 | 05:33 | 9.5 | 91 | 8.1 | 1025.4 | 0.0 | NO | 0 | 0.0 |
| 15.10.2025 | 05:38 | 9.5 | 91 | 8.1 | 1025.3 | 0.4 | NO | 0 | 0.0 |
| 15.10.2025 | 05:43 | 9.5 | 91 | 8.1 | 1025.4 | 0.4 | NNO | 0 | 0.0 |
| 15.10.2025 | 05:48 | 9.6 | 91 | 8.2 | 1025.4 | 0.4 | NNO | 0 | 0.0 |
| 15.10.2025 | 05:53 | 9.6 | 91 | 8.2 | 1025.3 | 0.0 | N | 0 | 0.0 |
| 15.10.2025 | 06:03 | 9.6 | 91 | 8.2 | 1025.3 | 0.4 | N | 0 | 0.0 |
| 15.10.2025 | 06:08 | 9.7 | 91 | 8.3 | 1025.3 | 0.0 | NNO | 0 | 0.0 |
| 15.10.2025 | 06:13 | 9.7 | 91 | 8.3 | 1025.3 | 0.0 | NNO | 0 | 0.0 |
| 15.10.2025 | 06:18 | 9.8 | 91 | 8.4 | 1025.3 | 0.4 | NNO | 0 | 0.0 |
| 15.10.2025 | 06:23 | 9.8 | 91 | 8.4 | 1025.3 | 0.4 | NNO | 0 | 0.0 |
| 15.10.2025 | 06:28 | 9.8 | 91 | 8.4 | 1025.3 | 0.4 | NNO | 0 | 0.0 |
| 15.10.2025 | 06:33 | 9.8 | 91 | 8.4 | 1025.3 | 0.0 | NNO | 0 | 0.0 |
| 15.10.2025 | 06:38 | 9.8 | 91 | 8.4 | 1025.4 | 0.4 | NNO | 0 | 0.0 |
| 15.10.2025 | 06:43 | 9.9 | 91 | 8.5 | 1025.3 | 0.0 | NNO | 0 | 0.0 |
| 15.10.2025 | 06:48 | 9.9 | 91 | 8.5 | 1025.3 | 0.4 | NNO | 0 | 0.0 |
| 15.10.2025 | 06:54 | 9.9 | 91 | 8.5 | 1025.4 | 0.0 | NNO | 0 | 0.0 |
| 15.10.2025 | 07:04 | 9.9 | 91 | 8.5 | 1025.4 | 0.4 | NNO | 0 | 0.0 |
| 15.10.2025 | 07:09 | 9.9 | 91 | 8.5 | 1025.4 | 0.4 | NNO | 0 | 0.0 |
| 15.10.2025 | 07:14 | 9.9 | 91 | 8.5 | 1025.4 | 0.9 | NNO | 0 | 0.0 |
| 15.10.2025 | 07:19 | 10.0 | 91 | 8.6 | 1025.4 | 0.0 | NNO | 0 | 0.0 |
| 15.10.2025 | 07:24 | 10.0 | 91 | 8.6 | 1025.4 | 0.9 | NNO | 0 | 0.0 |
| 15.10.2025 | 07:29 | 9.9 | 91 | 8.5 | 1025.3 | 0.9 | NNO | 0 | 0.0 |
| 15.10.2025 | 07:34 | 10.0 | 91 | 8.6 | 1025.3 | 0.4 | NNO | 0 | 0.0 |
| 15.10.2025 | 07:39 | 9.9 | 91 | 8.5 | 1025.3 | 0.4 | NNO | 0 | 0.0 |
| 15.10.2025 | 07:44 | 9.9 | 91 | 8.5 | 1025.3 | 0.4 | NNO | 0 | 0.0 |
| 15.10.2025 | 07:49 | 9.9 | 91 | 8.5 | 1025.3 | 0.4 | NO | 0 | 0.0 |
| 15.10.2025 | 07:54 | 9.9 | 91 | 8.5 | 1025.3 | 0.4 | NO | 0 | 0.0 |
| 15.10.2025 | 07:59 | 10.0 | 91 | 8.6 | 1025.3 | 0.0 | NO | 0 | 0.0 |
| 15.10.2025 | 08:04 | 10.0 | 91 | 8.6 | 1025.3 | 0.9 | NO | 0 | 0.0 |
| 15.10.2025 | 08:09 | 10.0 | 91 | 8.6 | 1025.4 | 0.4 | NO | 0 | 0.0 |
| 15.10.2025 | 08:14 | 10.0 | 91 | 8.6 | 1025.4 | 0.0 | NO | 5 | 0.0 |
| 15.10.2025 | 08:24 | 10.0 | 91 | 8.6 | 1025.4 | 0.4 | NNO | 9 | 0.0 |
| 15.10.2025 | 08:29 | 10.0 | 91 | 8.6 | 1025.4 | 0.4 | NNO | 12 | 0.0 |
| 15.10.2025 | 08:34 | 10.0 | 91 | 8.6 | 1025.4 | 0.9 | NNO | 16 | 0.0 |
| 15.10.2025 | 08:39 | 10.1 | 91 | 8.7 | 1025.5 | 0.0 | NNO | 16 | 0.0 |
| 15.10.2025 | 08:44 | 10.1 | 91 | 8.7 | 1025.5 | 0.4 | NNO | 19 | 0.0 |
| 15.10.2025 | 08:49 | 10.3 | 91 | 8.9 | 1025.6 | 0.4 | NNO | 19 | 0.0 |
| 15.10.2025 | 08:54 | 10.3 | 91 | 8.9 | 1025.6 | 0.4 | NO | 21 | 0.0 |
| 15.10.2025 | 08:59 | 10.4 | 91 | 9.0 | 1025.5 | 0.4 | NNO | 23 | 0.0 |
| 15.10.2025 | 09:04 | 10.4 | 91 | 9.0 | 1025.5 | 0.4 | NNO | 25 | 0.0 |
| 15.10.2025 | 09:09 | 10.5 | 91 | 9.1 | 1025.6 | 0.9 | NNO | 26 | 0.0 |
| 15.10.2025 | 09:14 | 10.5 | 91 | 9.1 | 1025.6 | 0.4 | NO | 30 | 0.0 |
| 15.10.2025 | 09:19 | 10.6 | 91 | 9.2 | 1025.6 | 0.4 | NO | 33 | 0.0 |
| 15.10.2025 | 09:24 | 10.7 | 91 | 9.3 | 1025.6 | 0.4 | NO | 37 | 0.0 |
| 15.10.2025 | 09:34 | 10.8 | 91 | 9.4 | 1025.5 | 0.4 | NNO | 47 | 0.0 |
| 15.10.2025 | 09:40 | 10.9 | 91 | 9.5 | 1025.6 | 0.4 | N | 47 | 0.0 |
| 15.10.2025 | 09:45 | 10.9 | 90 | 9.3 | 1025.6 | 0.9 | NNO | 51 | 0.0 |
| 15.10.2025 | 09:50 | 10.9 | 90 | 9.3 | 1025.6 | 1.3 | NW | 54 | 0.0 |
| 15.10.2025 | 09:55 | 11.0 | 90 | 9.4 | 1025.6 | 0.4 | NNO | 56 | 0.0 |
| 15.10.2025 | 10:00 | 11.0 | 90 | 9.4 | 1025.7 | 0.4 | N | 54 | 0.0 |
| 15.10.2025 | 10:05 | 11.1 | 90 | 9.5 | 1025.8 | 0.9 | NNO | 58 | 0.0 |
| 15.10.2025 | 10:10 | 11.1 | 90 | 9.5 | 1025.8 | 0.4 | N | 60 | 0.0 |
| 15.10.2025 | 10:15 | 11.2 | 90 | 9.6 | 1025.9 | 0.4 | NNO | 58 | 0.0 |
| 15.10.2025 | 10:20 | 11.2 | 90 | 9.6 | 1025.9 | 0.4 | NW | 62 | 0.0 |
| 15.10.2025 | 10:25 | 11.2 | 90 | 9.6 | 1025.8 | 0.4 | NO | 67 | 0.0 |
| 15.10.2025 | 10:30 | 11.3 | 90 | 9.7 | 1025.8 | 0.9 | N | 69 | 0.0 |
| 15.10.2025 | 10:35 | 11.3 | 90 | 9.7 | 1025.8 | 1.3 | NNW | 74 | 0.0 |
| 15.10.2025 | 10:40 | 11.3 | 89 | 9.6 | 1025.9 | 1.3 | NNO | 76 | 0.0 |
| 15.10.2025 | 10:45 | 11.4 | 89 | 9.7 | 1025.9 | 0.9 | N | 84 | 0.0 |
| 15.10.2025 | 10:50 | 11.4 | 89 | 9.7 | 1025.9 | 0.9 | NNO | 88 | 0.0 |
| 15.10.2025 | 10:55 | 11.5 | 89 | 9.7 | 1026.0 | 0.4 | NNO | 95 | 0.0 |
| 15.10.2025 | 11:00 | 11.5 | 89 | 9.7 | 1026.0 | 0.0 | NO | 105 | 0.0 |
| 15.10.2025 | 11:05 | 11.6 | 89 | 9.8 | 1026.1 | 0.4 | NO | 109 | 0.0 |
| 15.10.2025 | 11:10 | 11.6 | 89 | 9.8 | 1026.0 | 1.3 | NO | 113 | 0.0 |
| 15.10.2025 | 11:15 | 11.7 | 89 | 9.9 | 1026.0 | 1.3 | N | 113 | 0.0 |
| 15.10.2025 | 11:20 | 11.8 | 88 | 9.9 | 1026.0 | 1.3 | NW | 118 | 0.0 |
| 15.10.2025 | 11:25 | 11.8 | 88 | 9.9 | 1026.0 | 0.9 | N | 141 | 0.0 |
| 15.10.2025 | 11:30 | 11.9 | 89 | 10.1 | 1026.0 | 0.9 | N | 151 | 0.0 |
| 15.10.2025 | 11:35 | 12.0 | 88 | 10.1 | 1026.1 | 1.3 | NNO | 137 | 0.0 |
| 15.10.2025 | 11:40 | 12.1 | 88 | 10.2 | 1026.0 | 0.9 | NNO | 132 | 0.0 |
| 15.10.2025 | 11:45 | 12.2 | 88 | 10.3 | 1026.0 | 1.8 | NNO | 127 | 0.0 |
| 15.10.2025 | 11:50 | 12.2 | 88 | 10.3 | 1026.0 | 0.4 | NNW | 118 | 0.0 |
| 15.10.2025 | 11:55 | 12.3 | 88 | 10.4 | 1026.0 | 1.8 | NO | 135 | 0.0 |
| 15.10.2025 | 12:00 | 12.3 | 88 | 10.4 | 1026.0 | 1.3 | NNO | 158 | 0.0 |
| 15.10.2025 | 12:05 | 12.4 | 88 | 10.5 | 1026.0 | 1.3 | N | 179 | 0.0 |
| 15.10.2025 | 12:10 | 12.5 | 88 | 10.6 | 1026.0 | 1.3 | NNW | 225 | 0.0 |
| 15.10.2025 | 12:15 | 12.6 | 87 | 10.5 | 1026.1 | 0.9 | NW | 195 | 0.0 |
| 15.10.2025 | 12:20 | 12.8 | 87 | 10.7 | 1026.0 | 0.4 | NNO | 197 | 0.0 |
| 15.10.2025 | 12:25 | 12.9 | 87 | 10.8 | 1026.1 | 0.9 | N | 204 | 0.0 |
| 15.10.2025 | 12:31 | 12.9 | 87 | 10.8 | 1026.0 | 1.3 | NNO | 193 | 0.0 |
| 15.10.2025 | 12:36 | 12.9 | 87 | 10.8 | 1026.0 | 0.9 | WNW | 172 | 0.0 |
| 15.10.2025 | 12:41 | 13.0 | 86 | 10.7 | 1026.0 | 0.9 | NW | 139 | 0.0 |
| 15.10.2025 | 12:46 | 13.0 | 86 | 10.7 | 1026.0 | 0.4 | NNW | 114 | 0.0 |
| 15.10.2025 | 12:51 | 13.0 | 86 | 10.7 | 1026.1 | 0.4 | NNO | 93 | 0.0 |
| 15.10.2025 | 12:56 | 13.0 | 86 | 10.7 | 1026.0 | 0.0 | WNW | 111 | 0.0 |
| 15.10.2025 | 13:01 | 13.0 | 86 | 10.7 | 1025.9 | 0.9 | NNO | 134 | 0.0 |
| 15.10.2025 | 13:06 | 13.0 | 86 | 10.7 | 1026.0 | 0.4 | NNW | 171 | 0.0 |
| 15.10.2025 | 13:11 | 13.1 | 86 | 10.8 | 1025.9 | 0.0 | ONO | 181 | 0.0 |
| 15.10.2025 | 13:16 | 13.2 | 86 | 10.9 | 1025.8 | 0.4 | ONO | 183 | 0.0 |
| 15.10.2025 | 13:21 | 13.3 | 85 | 10.8 | 1025.7 | 1.3 | NW | 214 | 0.0 |
| 15.10.2025 | 13:26 | 13.4 | 85 | 10.9 | 1025.7 | 1.3 | NNW | 213 | 0.0 |
| 15.10.2025 | 13:31 | 13.5 | 85 | 11.0 | 1025.7 | 1.3 | NNO | 218 | 0.0 |
| 15.10.2025 | 13:36 | 13.5 | 85 | 11.0 | 1025.7 | 1.3 | NNW | 243 | 0.0 |
| 15.10.2025 | 13:41 | 13.7 | 85 | 11.2 | 1025.6 | 0.4 | NNO | 236 | 0.0 |
| 15.10.2025 | 13:46 | 13.8 | 84 | 11.1 | 1025.6 | 0.4 | NW | 207 | 0.0 |
| 15.10.2025 | 13:51 | 13.9 | 84 | 11.2 | 1025.6 | 1.3 | NO | 188 | 0.0 |
| 15.10.2025 | 13:56 | 13.9 | 83 | 11.1 | 1025.6 | 0.9 | NNW | 188 | 0.0 |
| 15.10.2025 | 14:01 | 13.9 | 83 | 11.1 | 1025.6 | 1.8 | N | 192 | 0.0 |
| 15.10.2025 | 14:06 | 13.9 | 82 | 10.9 | 1025.6 | 0.9 | NNW | 186 | 0.0 |
| 15.10.2025 | 14:11 | 14.0 | 83 | 11.2 | 1025.5 | 0.9 | NNW | 211 | 0.0 |
| 15.10.2025 | 14:16 | 14.0 | 82 | 11.0 | 1025.5 | 1.3 | N | 199 | 0.0 |
| 15.10.2025 | 14:21 | 14.0 | 82 | 11.0 | 1025.4 | 1.8 | NO | 186 | 0.0 |
| 15.10.2025 | 14:26 | 14.0 | 81 | 10.8 | 1025.4 | 1.3 | ONO | 160 | 0.0 |
| 15.10.2025 | 14:31 | 13.9 | 81 | 10.7 | 1025.3 | 1.8 | ONO | 144 | 0.0 |
| 15.10.2025 | 14:36 | 13.9 | 81 | 10.7 | 1025.2 | 2.2 | N | 125 | 0.0 |
| 15.10.2025 | 14:41 | 13.9 | 82 | 10.9 | 1025.2 | 0.9 | NNW | 125 | 0.0 |
| 15.10.2025 | 14:46 | 13.9 | 83 | 11.1 | 1025.1 | 1.3 | NW | 158 | 0.0 |
| 15.10.2025 | 14:51 | 13.8 | 83 | 11.0 | 1025.1 | 1.3 | NW | 146 | 0.0 |
| 15.10.2025 | 14:56 | 13.8 | 83 | 11.0 | 1025.0 | 1.8 | NW | 199 | 0.0 |
| 15.10.2025 | 15:01 | 13.8 | 83 | 11.0 | 1025.1 | 0.4 | NNW | 192 | 0.0 |
| 15.10.2025 | 15:07 | 13.9 | 83 | 11.1 | 1025.0 | 0.9 | NO | 151 | 0.0 |
| 15.10.2025 | 15:12 | 13.9 | 83 | 11.1 | 1025.1 | 1.3 | NW | 127 | 0.0 |
| 15.10.2025 | 15:17 | 13.9 | 83 | 11.1 | 1025.1 | 0.9 | NNW | 127 | 0.0 |
| 15.10.2025 | 15:22 | 13.9 | 83 | 11.1 | 1025.0 | 1.3 | NW | 118 | 0.0 |
| 15.10.2025 | 15:27 | 13.9 | 83 | 11.1 | 1025.0 | 2.2 | NW | 109 | 0.0 |
| 15.10.2025 | 15:32 | 13.8 | 83 | 11.0 | 1025.0 | 0.9 | NW | 111 | 0.0 |
| 15.10.2025 | 15:37 | 13.7 | 83 | 10.9 | 1025.0 | 1.3 | WNW | 120 | 0.0 |
| 15.10.2025 | 15:42 | 13.7 | 83 | 10.9 | 1025.0 | 0.9 | NW | 125 | 0.0 |
| 15.10.2025 | 15:47 | 13.7 | 83 | 10.9 | 1025.0 | 0.9 | NNO | 125 | 0.0 |
| 15.10.2025 | 15:52 | 13.7 | 83 | 10.9 | 1025.0 | 1.3 | NW | 118 | 0.0 |
| 15.10.2025 | 15:57 | 13.8 | 83 | 11.0 | 1025.1 | 0.4 | NW | 120 | 0.0 |
| 15.10.2025 | 16:02 | 13.8 | 83 | 11.0 | 1025.0 | 0.9 | NW | 123 | 0.0 |
| 15.10.2025 | 16:07 | 13.8 | 83 | 11.0 | 1025.0 | 0.9 | NW | 113 | 0.0 |
| 15.10.2025 | 16:12 | 13.8 | 82 | 10.8 | 1025.0 | 0.9 | NW | 105 | 0.0 |
| 15.10.2025 | 16:17 | 13.8 | 82 | 10.8 | 1025.0 | 0.4 | NNW | 97 | 0.0 |
| 15.10.2025 | 16:22 | 13.8 | 82 | 10.8 | 1024.9 | 0.9 | NNW | 90 | 0.0 |
| 15.10.2025 | 16:27 | 13.8 | 83 | 11.0 | 1024.9 | 0.0 | NW | 97 | 0.0 |
| 15.10.2025 | 16:32 | 13.8 | 82 | 10.8 | 1024.9 | 0.4 | NNW | 102 | 0.0 |
| 15.10.2025 | 16:37 | 13.8 | 83 | 11.0 | 1024.9 | 0.4 | NNW | 114 | 0.0 |
| 15.10.2025 | 16:42 | 13.9 | 83 | 11.1 | 1024.8 | 0.4 | NW | 114 | 0.0 |
| 15.10.2025 | 16:47 | 13.9 | 82 | 10.9 | 1024.8 | 0.4 | NW | 105 | 0.0 |
| 15.10.2025 | 16:52 | 13.9 | 82 | 10.9 | 1024.7 | 0.4 | NW | 91 | 0.0 |
| 15.10.2025 | 16:57 | 13.9 | 82 | 10.9 | 1024.7 | 1.3 | NW | 81 | 0.0 |
| 15.10.2025 | 17:02 | 13.8 | 82 | 10.8 | 1024.7 | 0.4 | NW | 84 | 0.0 |
| 15.10.2025 | 17:07 | 13.8 | 82 | 10.8 | 1024.7 | 1.3 | NW | 74 | 0.0 |
| 15.10.2025 | 17:12 | 13.8 | 83 | 11.0 | 1024.7 | 0.4 | NW | 69 | 0.0 |
| 15.10.2025 | 17:17 | 13.8 | 83 | 11.0 | 1024.7 | 0.9 | NNW | 70 | 0.0 |
| 15.10.2025 | 17:22 | 13.7 | 83 | 10.9 | 1024.7 | 0.0 | N | 74 | 0.0 |
| 15.10.2025 | 17:27 | 13.6 | 83 | 10.8 | 1024.7 | 0.9 | NNW | 65 | 0.0 |
| 15.10.2025 | 17:32 | 13.6 | 83 | 10.8 | 1024.6 | 0.4 | NW | 56 | 0.0 |
| 15.10.2025 | 17:37 | 13.6 | 83 | 10.8 | 1024.7 | 0.9 | N | 47 | 0.0 |
| 15.10.2025 | 17:42 | 13.5 | 83 | 10.7 | 1024.7 | 0.4 | NW | 42 | 0.0 |
| 15.10.2025 | 17:47 | 13.5 | 83 | 10.7 | 1024.7 | 0.4 | NW | 44 | 0.0 |
| 15.10.2025 | 17:53 | 13.5 | 83 | 10.7 | 1024.7 | 0.0 | NW | 37 | 0.0 |
| 15.10.2025 | 17:58 | 13.4 | 83 | 10.6 | 1024.7 | 0.9 | NW | 32 | 0.0 |
| 15.10.2025 | 18:03 | 13.4 | 83 | 10.6 | 1024.6 | 0.4 | NW | 28 | 0.0 |
| 15.10.2025 | 18:08 | 13.3 | 84 | 10.7 | 1024.6 | 0.0 | NW | 21 | 0.0 |
| 15.10.2025 | 18:13 | 13.3 | 84 | 10.7 | 1024.6 | 0.9 | NW | 18 | 0.0 |
| 15.10.2025 | 18:18 | 13.1 | 84 | 10.5 | 1024.6 | 0.0 | NW | 14 | 0.0 |
| 15.10.2025 | 18:23 | 13.1 | 84 | 10.5 | 1024.6 | 0.0 | NNW | 11 | 0.0 |
| 15.10.2025 | 18:28 | 13.0 | 84 | 10.4 | 1024.6 | 0.0 | NNW | 7 | 0.0 |
| 15.10.2025 | 18:33 | 13.0 | 84 | 10.4 | 1024.7 | 0.0 | NW | 5 | 0.0 |
| 15.10.2025 | 18:38 | 12.9 | 84 | 10.3 | 1024.7 | 0.0 | NNO | 0 | 0.0 |
| 15.10.2025 | 18:43 | 12.9 | 84 | 10.3 | 1024.7 | 0.9 | NNO | 0 | 0.0 |
| 15.10.2025 | 18:48 | 12.9 | 85 | 10.4 | 1024.7 | 0.0 | NNO | 0 | 0.0 |
| 15.10.2025 | 18:53 | 12.8 | 85 | 10.3 | 1024.8 | 0.9 | NNW | 0 | 0.0 |
| 15.10.2025 | 18:58 | 12.8 | 85 | 10.3 | 1024.8 | 0.4 | NNW | 0 | 0.0 |
| 15.10.2025 | 19:03 | 12.8 | 85 | 10.3 | 1024.9 | 0.4 | NNO | 0 | 0.0 |
| 15.10.2025 | 19:08 | 12.8 | 85 | 10.3 | 1024.9 | 0.0 | NNO | 0 | 0.0 |
| 15.10.2025 | 19:13 | 12.7 | 85 | 10.2 | 1024.9 | 0.9 | N | 0 | 0.0 |
| 15.10.2025 | 19:18 | 12.6 | 85 | 10.1 | 1024.9 | 0.0 | N | 0 | 0.0 |
| 15.10.2025 | 19:23 | 12.6 | 85 | 10.1 | 1024.9 | 0.9 | NNO | 0 | 0.0 |
| 15.10.2025 | 19:28 | 12.6 | 85 | 10.1 | 1024.9 | 0.4 | NNO | 0 | 0.0 |
| 15.10.2025 | 19:33 | 12.6 | 85 | 10.1 | 1024.9 | 0.4 | NNO | 0 | 0.0 |
| 15.10.2025 | 19:38 | 12.6 | 85 | 10.1 | 1025.0 | 0.4 | NNO | 0 | 0.0 |
| 15.10.2025 | 19:43 | 12.6 | 85 | 10.1 | 1024.9 | 0.0 | NNO | 0 | 0.0 |
| 15.10.2025 | 19:53 | 12.5 | 85 | 10.0 | 1025.0 | 0.4 | NNO | 0 | 0.0 |
| 15.10.2025 | 19:58 | 12.5 | 85 | 10.0 | 1025.0 | 0.9 | N | 0 | 0.0 |
| 15.10.2025 | 20:03 | 12.5 | 85 | 10.0 | 1025.0 | 0.4 | NNO | 0 | 0.0 |
| 15.10.2025 | 20:08 | 12.5 | 85 | 10.0 | 1025.0 | 1.3 | NO | 0 | 0.0 |
| 15.10.2025 | 20:13 | 12.5 | 85 | 10.0 | 1025.0 | 0.9 | NNO | 0 | 0.0 |
| 15.10.2025 | 20:18 | 12.5 | 85 | 10.0 | 1025.0 | 0.9 | NNO | 0 | 0.0 |
| 15.10.2025 | 20:23 | 12.5 | 85 | 10.0 | 1025.0 | 0.9 | NO | 0 | 0.0 |
| 15.10.2025 | 20:28 | 12.6 | 85 | 10.1 | 1025.0 | 0.9 | NO | 0 | 0.0 |
| 15.10.2025 | 20:33 | 12.5 | 85 | 10.0 | 1025.1 | 1.3 | ONO | 0 | 0.0 |
| 15.10.2025 | 20:38 | 12.5 | 85 | 10.0 | 1025.0 | 0.4 | ONO | 0 | 0.0 |
| 15.10.2025 | 20:43 | 12.6 | 85 | 10.1 | 1025.0 | 0.4 | NO | 0 | 0.0 |
| 15.10.2025 | 20:49 | 12.5 | 85 | 10.0 | 1025.0 | 0.4 | NO | 0 | 0.0 |
| 15.10.2025 | 20:54 | 12.5 | 85 | 10.0 | 1025.0 | 0.9 | NNO | 0 | 0.0 |
| 15.10.2025 | 20:59 | 12.5 | 85 | 10.0 | 1025.0 | 0.9 | NNO | 0 | 0.0 |
| 15.10.2025 | 21:04 | 12.5 | 85 | 10.0 | 1025.0 | 0.9 | NO | 0 | 0.0 |
| 15.10.2025 | 21:09 | 12.5 | 85 | 10.0 | 1025.0 | 0.4 | NNW | 0 | 0.0 |
| 15.10.2025 | 21:14 | 12.4 | 85 | 9.9 | 1025.0 | 0.0 | NNO | 0 | 0.0 |
| 15.10.2025 | 21:19 | 12.4 | 85 | 9.9 | 1025.0 | 0.4 | NNO | 0 | 0.0 |
| 15.10.2025 | 21:24 | 12.4 | 85 | 9.9 | 1025.1 | 0.9 | N | 0 | 0.0 |
| 15.10.2025 | 21:29 | 12.4 | 85 | 9.9 | 1025.0 | 0.4 | NNO | 0 | 0.0 |
| 15.10.2025 | 21:34 | 12.4 | 85 | 9.9 | 1025.0 | 0.0 | N | 0 | 0.0 |
| 15.10.2025 | 21:39 | 12.3 | 85 | 9.9 | 1025.0 | 0.4 | N | 0 | 0.0 |
| 15.10.2025 | 21:44 | 12.3 | 86 | 10.0 | 1025.1 | 0.9 | N | 0 | 0.0 |
| 15.10.2025 | 21:49 | 12.2 | 86 | 9.9 | 1025.1 | 0.4 | NO | 0 | 0.0 |
| 15.10.2025 | 21:54 | 12.1 | 86 | 9.8 | 1025.1 | 0.4 | NO | 0 | 0.0 |
| 15.10.2025 | 21:59 | 12.1 | 86 | 9.8 | 1025.1 | 0.4 | NNO | 0 | 0.0 |
| 15.10.2025 | 22:04 | 12.1 | 86 | 9.8 | 1025.1 | 0.4 | NO | 0 | 0.0 |
| 15.10.2025 | 22:14 | 12.1 | 85 | 9.7 | 1025.1 | 0.4 | NO | 0 | 0.0 |
| 15.10.2025 | 22:19 | 12.0 | 85 | 9.6 | 1025.1 | 0.0 | NO | 0 | 0.0 |
| 15.10.2025 | 22:24 | 12.0 | 85 | 9.6 | 1025.1 | 0.0 | NNW | 0 | 0.0 |
| 15.10.2025 | 22:29 | 12.0 | 85 | 9.6 | 1025.2 | 0.4 | NW | 0 | 0.0 |
| 15.10.2025 | 22:34 | 12.0 | 85 | 9.6 | 1025.2 | 0.4 | NW | 0 | 0.0 |
| 15.10.2025 | 22:39 | 11.9 | 86 | 9.6 | 1025.3 | 0.4 | NW | 0 | 0.0 |
| 15.10.2025 | 22:44 | 11.9 | 86 | 9.6 | 1025.3 | 0.0 | N | 0 | 0.0 |
| 15.10.2025 | 22:49 | 11.9 | 86 | 9.6 | 1025.3 | 0.4 | N | 0 | 0.0 |
| 15.10.2025 | 22:54 | 11.8 | 86 | 9.5 | 1025.3 | 0.0 | N | 0 | 0.0 |
| 15.10.2025 | 23:04 | 11.7 | 86 | 9.4 | 1025.2 | 0.4 | N | 0 | 0.0 |
| 15.10.2025 | 23:09 | 11.6 | 87 | 9.5 | 1025.2 | 0.4 | N | 0 | 0.0 |
| 15.10.2025 | 23:14 | 11.6 | 87 | 9.5 | 1025.2 | 0.0 | N | 0 | 0.0 |
| 15.10.2025 | 23:19 | 11.5 | 87 | 9.4 | 1025.2 | 0.0 | N | 0 | 0.0 |
| 15.10.2025 | 23:24 | 11.5 | 87 | 9.4 | 1025.1 | 0.4 | N | 0 | 0.0 |
| 15.10.2025 | 23:29 | 11.5 | 87 | 9.4 | 1025.2 | 0.0 | N | 0 | 0.0 |
| 15.10.2025 | 23:35 | 11.4 | 87 | 9.3 | 1025.2 | 0.0 | N | 0 | 0.0 |
| 15.10.2025 | 23:40 | 11.3 | 87 | 9.2 | 1025.1 | 0.4 | N | 0 | 0.0 |
| 15.10.2025 | 23:45 | 11.3 | 87 | 9.2 | 1025.1 | 0.4 | NNO | 0 | 0.0 |
| 15.10.2025 | 23:50 | 11.3 | 87 | 9.2 | 1025.0 | 0.4 | NNW | 0 | 0.0 |
| 15.10.2025 | 23:55 | 11.2 | 87 | 9.1 | 1025.1 | 0.0 | NNW | 0 | 0.0 |